sensor_id;sensor_type;location;lat;lon;timestamp;pressure;altitude;pressure_sealevel;temperature
27986;BMP280;15453;53.692;10.168;2022-08-21T00:02:24;101346.19;;;20.87
27986;BMP280;15453;53.692;10.168;2022-08-21T00:04:51;101343.19;;;20.84
27986;BMP280;15453;53.692;10.168;2022-08-21T00:07:17;101336.84;;;20.78
27986;BMP280;15453;53.692;10.168;2022-08-21T00:09:43;101335.22;;;20.77
27986;BMP280;15453;53.692;10.168;2022-08-21T00:12:08;101333.31;;;20.73
27986;BMP280;15453;53.692;10.168;2022-08-21T00:14:34;101339.72;;;20.73
27986;BMP280;15453;53.692;10.168;2022-08-21T00:17:01;101334.47;;;20.72
27986;BMP280;15453;53.692;10.168;2022-08-21T00:19:27;101332.28;;;20.69
27986;BMP280;15453;53.692;10.168;2022-08-21T00:21:53;101324.50;;;20.66
27986;BMP280;15453;53.692;10.168;2022-08-21T00:24:20;101327.94;;;20.63
27986;BMP280;15453;53.692;10.168;2022-08-21T00:26:46;101322.66;;;20.61
27986;BMP280;15453;53.692;10.168;2022-08-21T00:29:11;101317.97;;;20.57
27986;BMP280;15453;53.692;10.168;2022-08-21T00:31:37;101317.97;;;20.57
27986;BMP280;15453;53.692;10.168;2022-08-21T00:34:03;101311.06;;;20.54
27986;BMP280;15453;53.692;10.168;2022-08-21T00:36:29;101305.59;;;20.49
27986;BMP280;15453;53.692;10.168;2022-08-21T00:38:54;101305.59;;;20.49
27986;BMP280;15453;53.692;10.168;2022-08-21T00:41:20;101307.31;;;20.45
27986;BMP280;15453;53.692;10.168;2022-08-21T00:43:45;101307.59;;;20.44
27986;BMP280;15453;53.692;10.168;2022-08-21T00:46:11;101310.19;;;20.40
27986;BMP280;15453;53.692;10.168;2022-08-21T00:48:36;101309.63;;;20.38
27986;BMP280;15453;53.692;10.168;2022-08-21T00:51:08;101313.84;;;20.36
27986;BMP280;15453;53.692;10.168;2022-08-21T00:53:38;101313.84;;;20.36
27986;BMP280;15453;53.692;10.168;2022-08-21T00:56:06;101315.06;;;20.30
27986;BMP280;15453;53.692;10.168;2022-08-21T00:58:32;101311.50;;;20.24
27986;BMP280;15453;53.692;10.168;2022-08-21T01:01:02;101316.53;;;20.22
27986;BMP280;15453;53.692;10.168;2022-08-21T01:03:27;101310.25;;;20.17
27986;BMP280;15453;53.692;10.168;2022-08-21T01:05:53;101311.13;;;20.12
27986;BMP280;15453;53.692;10.168;2022-08-21T01:08:19;101314.19;;;20.11
27986;BMP280;15453;53.692;10.168;2022-08-21T01:10:45;101314.25;;;20.06
27986;BMP280;15453;53.692;10.168;2022-08-21T01:13:14;101313.69;;;20.04
27986;BMP280;15453;53.692;10.168;2022-08-21T01:15:43;101313.69;;;20.04
27986;BMP280;15453;53.692;10.168;2022-08-21T01:18:10;101314.38;;;19.96
27986;BMP280;15453;53.692;10.168;2022-08-21T01:20:37;101309.41;;;19.93
27986;BMP280;15453;53.692;10.168;2022-08-21T01:23:04;101315.56;;;19.90
27986;BMP280;15453;53.692;10.168;2022-08-21T01:25:31;101310.59;;;19.87
27986;BMP280;15453;53.692;10.168;2022-08-21T01:28:06;101317.06;;;19.82
27986;BMP280;15453;53.692;10.168;2022-08-21T01:30:34;101322.91;;;19.81
27986;BMP280;15453;53.692;10.168;2022-08-21T01:33:00;101325.47;;;19.77
27986;BMP280;15453;53.692;10.168;2022-08-21T01:35:25;101326.03;;;19.74
27986;BMP280;15453;53.692;10.168;2022-08-21T01:37:51;101318.28;;;19.71
27986;BMP280;15453;53.692;10.168;2022-08-21T01:40:17;101329.69;;;19.70
27986;BMP280;15453;53.692;10.168;2022-08-21T01:42:44;101317.22;;;19.67
27986;BMP280;15453;53.692;10.168;2022-08-21T01:45:11;101317.81;;;19.64
27986;BMP280;15453;53.692;10.168;2022-08-21T01:47:37;101313.38;;;19.63
27986;BMP280;15453;53.692;10.168;2022-08-21T01:50:09;101309.53;;;19.59
27986;BMP280;15453;53.692;10.168;2022-08-21T01:52:35;101309.00;;;19.57
27986;BMP280;15453;53.692;10.168;2022-08-21T01:55:00;101307.09;;;19.53
27986;BMP280;15453;53.692;10.168;2022-08-21T01:57:26;101302.97;;;19.50
27986;BMP280;15453;53.692;10.168;2022-08-21T01:59:51;101313.56;;;19.48
27986;BMP280;15453;53.692;10.168;2022-08-21T02:02:17;101314.97;;;19.46
27986;BMP280;15453;53.692;10.168;2022-08-21T02:04:42;101308.03;;;19.43
27986;BMP280;15453;53.692;10.168;2022-08-21T02:07:07;101303.91;;;19.41
27986;BMP280;15453;53.692;10.168;2022-08-21T02:09:32;101313.66;;;19.38
27986;BMP280;15453;53.692;10.168;2022-08-21T02:11:58;101312.28;;;19.36
27986;BMP280;15453;53.692;10.168;2022-08-21T02:14:24;101312.28;;;19.36
27986;BMP280;15453;53.692;10.168;2022-08-21T02:16:49;101314.84;;;19.32
27986;BMP280;15453;53.692;10.168;2022-08-21T02:19:15;101316.53;;;19.28
27986;BMP280;15453;53.692;10.168;2022-08-21T02:21:41;101314.34;;;19.25
27986;BMP280;15453;53.692;10.168;2022-08-21T02:24:07;101312.09;;;19.22
27986;BMP280;15453;53.692;10.168;2022-08-21T02:26:33;101312.09;;;19.22
27986;BMP280;15453;53.692;10.168;2022-08-21T02:28:59;101312.16;;;19.17
27986;BMP280;15453;53.692;10.168;2022-08-21T02:31:24;101313.28;;;19.16
27986;BMP280;15453;53.692;10.168;2022-08-21T02:33:50;101313.28;;;19.16
27986;BMP280;15453;53.692;10.168;2022-08-21T02:36:16;101312.50;;;19.11
27986;BMP280;15453;53.692;10.168;2022-08-21T02:38:42;101310.03;;;19.09
27986;BMP280;15453;53.692;10.168;2022-08-21T02:41:12;101315.06;;;19.07
27986;BMP280;15453;53.692;10.168;2022-08-21T02:43:37;101307.28;;;19.04
27986;BMP280;15453;53.692;10.168;2022-08-21T02:46:04;101310.34;;;19.03
27986;BMP280;15453;53.692;10.168;2022-08-21T02:48:32;101310.34;;;19.03
27986;BMP280;15453;53.692;10.168;2022-08-21T02:51:01;101300.97;;;18.99
27986;BMP280;15453;53.692;10.168;2022-08-21T02:53:28;101308.47;;;18.98
27986;BMP280;15453;53.692;10.168;2022-08-21T02:55:53;101303.50;;;18.95
27986;BMP280;15453;53.692;10.168;2022-08-21T02:58:23;101303.25;;;18.92
27986;BMP280;15453;53.692;10.168;2022-08-21T03:00:50;101292.19;;;18.87
27986;BMP280;15453;53.692;10.168;2022-08-21T03:03:16;101289.69;;;18.85
27986;BMP280;15453;53.692;10.168;2022-08-21T03:05:42;101289.69;;;18.85
27986;BMP280;15453;53.692;10.168;2022-08-21T03:08:10;101287.81;;;18.81
27986;BMP280;15453;53.692;10.168;2022-08-21T03:10:41;101288.38;;;18.78
27986;BMP280;15453;53.692;10.168;2022-08-21T03:13:07;101291.72;;;18.75
27986;BMP280;15453;53.692;10.168;2022-08-21T03:15:33;101291.19;;;18.73
27986;BMP280;15453;53.692;10.168;2022-08-21T03:18:02;101291.47;;;18.71
27986;BMP280;15453;53.692;10.168;2022-08-21T03:20:29;101290.13;;;18.69
27986;BMP280;15453;53.692;10.168;2022-08-21T03:22:56;101287.63;;;18.67
27986;BMP280;15453;53.692;10.168;2022-08-21T03:25:23;101291.81;;;18.65
27986;BMP280;15453;53.692;10.168;2022-08-21T03:27:48;101288.81;;;18.61
27986;BMP280;15453;53.692;10.168;2022-08-21T03:30:14;101288.81;;;18.61
27986;BMP280;15453;53.692;10.168;2022-08-21T03:32:40;101296.84;;;18.58
27986;BMP280;15453;53.692;10.168;2022-08-21T03:35:07;101293.56;;;18.56
27986;BMP280;15453;53.692;10.168;2022-08-21T03:37:33;101291.91;;;18.55
27986;BMP280;15453;53.692;10.168;2022-08-21T03:39:58;101291.34;;;18.53
27986;BMP280;15453;53.692;10.168;2022-08-21T03:42:24;101286.09;;;18.51
27986;BMP280;15453;53.692;10.168;2022-08-21T03:44:49;101286.09;;;18.51
27986;BMP280;15453;53.692;10.168;2022-08-21T03:47:15;101280.28;;;18.48
27986;BMP280;15453;53.692;10.168;2022-08-21T03:49:40;101280.28;;;18.48
27986;BMP280;15453;53.692;10.168;2022-08-21T03:52:06;101283.34;;;18.46
27986;BMP280;15453;53.692;10.168;2022-08-21T03:54:31;101282.81;;;18.44
27986;BMP280;15453;53.692;10.168;2022-08-21T03:56:57;101285.88;;;18.43
27986;BMP280;15453;53.692;10.168;2022-08-21T03:59:22;101287.28;;;18.40
27986;BMP280;15453;53.692;10.168;2022-08-21T04:02:00;101294.25;;;18.38
27986;BMP280;15453;53.692;10.168;2022-08-21T04:04:27;101294.25;;;18.38
27986;BMP280;15453;53.692;10.168;2022-08-21T04:06:52;101295.34;;;18.37
27986;BMP280;15453;53.692;10.168;2022-08-21T04:09:18;101303.38;;;18.33
27986;BMP280;15453;53.692;10.168;2022-08-21T04:11:44;101297.00;;;18.33
27986;BMP280;15453;53.692;10.168;2022-08-21T04:14:11;101297.00;;;18.33
27986;BMP280;15453;53.692;10.168;2022-08-21T04:16:37;101296.75;;;18.29
27986;BMP280;15453;53.692;10.168;2022-08-21T04:19:02;101300.94;;;18.27
27986;BMP280;15453;53.692;10.168;2022-08-21T04:21:27;101298.44;;;18.25
27986;BMP280;15453;53.692;10.168;2022-08-21T04:23:56;101300.69;;;18.23
27986;BMP280;15453;53.692;10.168;2022-08-21T04:26:22;101300.69;;;18.23
27986;BMP280;15453;53.692;10.168;2022-08-21T04:28:47;101285.72;;;18.19
27986;BMP280;15453;53.692;10.168;2022-08-21T04:31:12;101298.75;;;18.19
27986;BMP280;15453;53.692;10.168;2022-08-21T04:33:38;101299.03;;;18.17
27986;BMP280;15453;53.692;10.168;2022-08-21T04:36:04;101302.09;;;18.16
27986;BMP280;15453;53.692;10.168;2022-08-21T04:38:29;101305.16;;;18.14
27986;BMP280;15453;53.692;10.168;2022-08-21T04:40:56;101303.78;;;18.12
27986;BMP280;15453;53.692;10.168;2022-08-21T04:43:21;101308.22;;;18.13
27986;BMP280;15453;53.692;10.168;2022-08-21T04:45:49;101308.22;;;18.13
27986;BMP280;15453;53.692;10.168;2022-08-21T04:48:17;101309.59;;;18.10
27986;BMP280;15453;53.692;10.168;2022-08-21T04:50:57;101309.06;;;18.08
27986;BMP280;15453;53.692;10.168;2022-08-21T04:53:31;101312.69;;;18.09
27986;BMP280;15453;53.692;10.168;2022-08-21T04:56:02;101310.44;;;18.11
27986;BMP280;15453;53.692;10.168;2022-08-21T04:58:29;101311.28;;;18.11
27986;BMP280;15453;53.692;10.168;2022-08-21T05:00:58;101312.94;;;18.12
27986;BMP280;15453;53.692;10.168;2022-08-21T05:03:25;101312.94;;;18.12
27986;BMP280;15453;53.692;10.168;2022-08-21T05:05:50;101312.66;;;18.14
27986;BMP280;15453;53.692;10.168;2022-08-21T05:08:19;101315.44;;;18.14
27986;BMP280;15453;53.692;10.168;2022-08-21T05:10:46;101308.75;;;18.15
27986;BMP280;15453;53.692;10.168;2022-08-21T05:13:12;101313.19;;;18.16
27986;BMP280;15453;53.692;10.168;2022-08-21T05:15:39;101312.38;;;18.15
27986;BMP280;15453;53.692;10.168;2022-08-21T05:18:04;101312.38;;;18.15
27986;BMP280;15453;53.692;10.168;2022-08-21T05:20:30;101318.72;;;18.16
27986;BMP280;15453;53.692;10.168;2022-08-21T05:22:55;101314.03;;;18.16
27986;BMP280;15453;53.692;10.168;2022-08-21T05:25:21;101315.94;;;18.16
27986;BMP280;15453;53.692;10.168;2022-08-21T05:27:46;101314.56;;;18.18
27986;BMP280;15453;53.692;10.168;2022-08-21T05:30:12;101314.56;;;18.18
27986;BMP280;15453;53.692;10.168;2022-08-21T05:32:38;101317.88;;;18.20
27986;BMP280;15453;53.692;10.168;2022-08-21T05:35:04;101324.78;;;18.23
27986;BMP280;15453;53.692;10.168;2022-08-21T05:37:30;101316.19;;;18.24
27986;BMP280;15453;53.692;10.168;2022-08-21T05:39:55;101322.28;;;18.26
27986;BMP280;15453;53.692;10.168;2022-08-21T05:42:21;101325.03;;;18.31
27986;BMP280;15453;53.692;10.168;2022-08-21T05:44:46;101322.25;;;18.36
27986;BMP280;15453;53.692;10.168;2022-08-21T05:47:11;101319.72;;;18.40
27986;BMP280;15453;53.692;10.168;2022-08-21T05:49:37;101320.25;;;18.47
27986;BMP280;15453;53.692;10.168;2022-08-21T05:52:03;101319.38;;;18.51
27986;BMP280;15453;53.692;10.168;2022-08-21T05:54:29;101318.25;;;18.57
27986;BMP280;15453;53.692;10.168;2022-08-21T05:56:54;101318.72;;;18.64
27986;BMP280;15453;53.692;10.168;2022-08-21T05:59:20;101314.81;;;18.70
27986;BMP280;15453;53.692;10.168;2022-08-21T06:01:45;101306.44;;;18.75
27986;BMP280;15453;53.692;10.168;2022-08-21T06:04:11;101314.44;;;18.82
27986;BMP280;15453;53.692;10.168;2022-08-21T06:06:36;101318.00;;;18.87
27986;BMP280;15453;53.692;10.168;2022-08-21T06:09:03;101314.88;;;18.94
27986;BMP280;15453;53.692;10.168;2022-08-21T06:11:28;101315.69;;;18.99
27986;BMP280;15453;53.692;10.168;2022-08-21T06:13:54;101311.19;;;19.03
27986;BMP280;15453;53.692;10.168;2022-08-21T06:16:19;101308.09;;;19.10
27986;BMP280;15453;53.692;10.168;2022-08-21T06:18:45;101315.22;;;19.16
27986;BMP280;15453;53.692;10.168;2022-08-21T06:21:11;101307.69;;;19.21
27986;BMP280;15453;53.692;10.168;2022-08-21T06:23:37;101316.84;;;19.27
27986;BMP280;15453;53.692;10.168;2022-08-21T06:26:04;101304.53;;;19.33
27986;BMP280;15453;53.692;10.168;2022-08-21T06:28:30;101313.66;;;19.38
27986;BMP280;15453;53.692;10.168;2022-08-21T06:30:55;101308.88;;;19.44
27986;BMP280;15453;53.692;10.168;2022-08-21T06:33:21;101312.72;;;19.48
27986;BMP280;15453;53.692;10.168;2022-08-21T06:35:46;101310.44;;;19.55
27986;BMP280;15453;53.692;10.168;2022-08-21T06:38:11;101308.72;;;19.59
27986;BMP280;15453;53.692;10.168;2022-08-21T06:40:37;101309.47;;;19.64
27986;BMP280;15453;53.692;10.168;2022-08-21T06:43:14;101307.47;;;19.70
27986;BMP280;15453;53.692;10.168;2022-08-21T06:45:40;101307.47;;;19.70
27986;BMP280;15453;53.692;10.168;2022-08-21T06:48:05;101299.66;;;19.72
27986;BMP280;15453;53.692;10.168;2022-08-21T06:50:32;101305.16;;;19.77
27986;BMP280;15453;53.692;10.168;2022-08-21T06:53:12;101297.03;;;19.80
27986;BMP280;15453;53.692;10.168;2022-08-21T06:55:39;101302.56;;;19.85
27986;BMP280;15453;53.692;10.168;2022-08-21T06:58:05;101297.22;;;19.89
27986;BMP280;15453;53.692;10.168;2022-08-21T07:00:31;101297.16;;;19.94
27986;BMP280;15453;53.692;10.168;2022-08-21T07:02:57;101291.81;;;19.97
27986;BMP280;15453;53.692;10.168;2022-08-21T07:05:25;101290.94;;;20.02
27986;BMP280;15453;53.692;10.168;2022-08-21T07:07:51;101293.94;;;20.05
27986;BMP280;15453;53.692;10.168;2022-08-21T07:10:17;101291.16;;;20.10
27986;BMP280;15453;53.692;10.168;2022-08-21T07:12:42;101282.72;;;20.15
27986;BMP280;15453;53.692;10.168;2022-08-21T07:15:08;101289.19;;;20.29
27986;BMP280;15453;53.692;10.168;2022-08-21T07:17:33;101289.19;;;20.29
27986;BMP280;15453;53.692;10.168;2022-08-21T07:19:58;101281.38;;;20.31
27986;BMP280;15453;53.692;10.168;2022-08-21T07:22:24;101279.66;;;20.35
27986;BMP280;15453;53.692;10.168;2022-08-21T07:24:49;101282.34;;;20.40
27986;BMP280;15453;53.692;10.168;2022-08-21T07:27:15;101276.16;;;20.43
27986;BMP280;15453;53.692;10.168;2022-08-21T07:29:40;101282.41;;;20.54
27986;BMP280;15453;53.692;10.168;2022-08-21T07:32:05;101282.41;;;20.54
27986;BMP280;15453;53.692;10.168;2022-08-21T07:34:31;101273.75;;;20.55
27986;BMP280;15453;53.692;10.168;2022-08-21T07:36:57;101268.63;;;20.62
27986;BMP280;15453;53.692;10.168;2022-08-21T07:39:23;101267.75;;;20.67
27986;BMP280;15453;53.692;10.168;2022-08-21T07:41:48;101269.44;;;20.81
27986;BMP280;15453;53.692;10.168;2022-08-21T07:44:13;101263.47;;;20.88
27986;BMP280;15453;53.692;10.168;2022-08-21T07:46:38;101263.47;;;20.88
27986;BMP280;15453;53.692;10.168;2022-08-21T07:49:04;101262.56;;;20.92
27986;BMP280;15453;53.692;10.168;2022-08-21T07:51:29;101260.22;;;20.99
27986;BMP280;15453;53.692;10.168;2022-08-21T07:53:57;101258.69;;;21.07
27986;BMP280;15453;53.692;10.168;2022-08-21T07:56:24;101259.75;;;21.24
27986;BMP280;15453;53.692;10.168;2022-08-21T07:58:50;101259.75;;;21.24
27986;BMP280;15453;53.692;10.168;2022-08-21T08:01:15;101252.94;;;21.30
27986;BMP280;15453;53.692;10.168;2022-08-21T08:03:41;101258.97;;;21.51
27986;BMP280;15453;53.692;10.168;2022-08-21T08:06:07;101249.03;;;21.58
27986;BMP280;15453;53.692;10.168;2022-08-21T08:08:36;101245.84;;;21.65
27986;BMP280;15453;53.692;10.168;2022-08-21T08:11:01;101245.84;;;21.65
27986;BMP280;15453;53.692;10.168;2022-08-21T08:13:27;101238.22;;;21.70
27986;BMP280;15453;53.692;10.168;2022-08-21T08:15:52;101240.59;;;21.90
27986;BMP280;15453;53.692;10.168;2022-08-21T08:18:17;101240.34;;;22.00
27986;BMP280;15453;53.692;10.168;2022-08-21T08:20:43;101243.56;;;22.08
27986;BMP280;15453;53.692;10.168;2022-08-21T08:23:13;101245.59;;;22.16
27986;BMP280;15453;53.692;10.168;2022-08-21T08:25:38;101245.59;;;22.16
27986;BMP280;15453;53.692;10.168;2022-08-21T08:28:05;101240.16;;;22.33
27986;BMP280;15453;53.692;10.168;2022-08-21T08:30:30;101230.22;;;22.40
27986;BMP280;15453;53.692;10.168;2022-08-21T08:32:56;101230.22;;;22.40
27986;BMP280;15453;53.692;10.168;2022-08-21T08:35:22;101222.53;;;22.46
27986;BMP280;15453;53.692;10.168;2022-08-21T08:37:48;101233.81;;;22.54
27986;BMP280;15453;53.692;10.168;2022-08-21T08:40:21;101224.34;;;22.64
27986;BMP280;15453;53.692;10.168;2022-08-21T08:42:47;101223.91;;;22.70
27986;BMP280;15453;53.692;10.168;2022-08-21T08:45:18;101226.44;;;22.80
27986;BMP280;15453;53.692;10.168;2022-08-21T08:47:49;101219.25;;;22.88
27986;BMP280;15453;53.692;10.168;2022-08-21T08:50:22;101225.94;;;23.09
27986;BMP280;15453;53.692;10.168;2022-08-21T08:52:52;101218.75;;;23.16
27986;BMP280;15453;53.692;10.168;2022-08-21T08:55:26;101218.75;;;23.16
27986;BMP280;15453;53.692;10.168;2022-08-21T08:57:54;101213.94;;;23.30
27986;BMP280;15453;53.692;10.168;2022-08-21T09:00:22;101213.94;;;23.30
27986;BMP280;15453;53.692;10.168;2022-08-21T09:02:52;101213.78;;;23.35
27986;BMP280;15453;53.692;10.168;2022-08-21T09:05:40;101220.25;;;23.53
27986;BMP280;15453;53.692;10.168;2022-08-21T09:11:21;101222.59;;;23.59
27986;BMP280;15453;53.692;10.168;2022-08-21T09:16:45;101211.25;;;23.73
27986;BMP280;15453;53.692;10.168;2022-08-21T09:19:36;101198.44;;;23.80
27986;BMP280;15453;53.692;10.168;2022-08-21T09:22:19;101203.56;;;23.87
27986;BMP280;15453;53.692;10.168;2022-08-21T09:25:08;101201.63;;;23.96
27986;BMP280;15453;53.692;10.168;2022-08-21T09:27:35;101197.50;;;24.02
27986;BMP280;15453;53.692;10.168;2022-08-21T09:30:04;101203.31;;;24.22
27986;BMP280;15453;53.692;10.168;2022-08-21T09:32:32;101203.31;;;24.22
27986;BMP280;15453;53.692;10.168;2022-08-21T09:35:04;101190.94;;;24.40
27986;BMP280;15453;53.692;10.168;2022-08-21T09:37:31;101190.94;;;24.40
27986;BMP280;15453;53.692;10.168;2022-08-21T09:39:57;101190.94;;;24.40
27986;BMP280;15453;53.692;10.168;2022-08-21T09:42:29;101194.56;;;24.58
27986;BMP280;15453;53.692;10.168;2022-08-21T09:45:23;101194.56;;;24.58
27986;BMP280;15453;53.692;10.168;2022-08-21T09:47:48;101189.94;;;24.70
27986;BMP280;15453;53.692;10.168;2022-08-21T09:50:20;101189.94;;;24.70
27986;BMP280;15453;53.692;10.168;2022-08-21T09:52:58;101181.72;;;24.74
27986;BMP280;15453;53.692;10.168;2022-08-21T09:55:38;101184.31;;;24.79
27986;BMP280;15453;53.692;10.168;2022-08-21T09:58:30;101181.84;;;24.86
27986;BMP280;15453;53.692;10.168;2022-08-21T10:00:59;101180.81;;;24.99
27986;BMP280;15453;53.692;10.168;2022-08-21T10:03:24;101178.94;;;25.11
27986;BMP280;15453;53.692;10.168;2022-08-21T10:06:03;101177.09;;;25.15
27986;BMP280;15453;53.692;10.168;2022-08-21T10:08:32;101179.38;;;25.22
27986;BMP280;15453;53.692;10.168;2022-08-21T10:11:10;101172.47;;;25.28
27986;BMP280;15453;53.692;10.168;2022-08-21T10:13:39;101174.25;;;25.32
27986;BMP280;15453;53.692;10.168;2022-08-21T10:22:02;101175.34;;;25.48
27986;BMP280;15453;53.692;10.168;2022-08-21T10:24:39;101171.19;;;25.54
27986;BMP280;15453;53.692;10.168;2022-08-21T10:27:27;101179.88;;;25.61
27986;BMP280;15453;53.692;10.168;2022-08-21T10:35:31;101174.16;;;25.78
27986;BMP280;15453;53.692;10.168;2022-08-21T10:41:13;101186.06;;;25.75
27986;BMP280;15453;53.692;10.168;2022-08-21T10:48:51;101175.41;;;25.69
27986;BMP280;15453;53.692;10.168;2022-08-21T10:54:21;101174.13;;;25.58
27986;BMP280;15453;53.692;10.168;2022-08-21T10:56:51;101169.81;;;25.60
27986;BMP280;15453;53.692;10.168;2022-08-21T11:01:58;101168.88;;;25.77
27986;BMP280;15453;53.692;10.168;2022-08-21T11:04:29;101179.03;;;25.90
27986;BMP280;15453;53.692;10.168;2022-08-21T11:07:03;101183.31;;;25.96
27986;BMP280;15453;53.692;10.168;2022-08-21T11:09:30;101181.13;;;26.01
27986;BMP280;15453;53.692;10.168;2022-08-21T11:12:00;101185.69;;;26.06
27986;BMP280;15453;53.692;10.168;2022-08-21T11:14:51;101176.94;;;26.07
27986;BMP280;15453;53.692;10.168;2022-08-21T11:17:27;101181.75;;;26.07
27986;BMP280;15453;53.692;10.168;2022-08-21T11:20:14;101183.19;;;26.13
27986;BMP280;15453;53.692;10.168;2022-08-21T11:22:43;101184.22;;;26.29
27986;BMP280;15453;53.692;10.168;2022-08-21T11:25:21;101184.22;;;26.29
27986;BMP280;15453;53.692;10.168;2022-08-21T11:27:58;101178.03;;;26.35
27986;BMP280;15453;53.692;10.168;2022-08-21T11:30:33;101171.97;;;26.45
27986;BMP280;15453;53.692;10.168;2022-08-21T11:33:36;101181.16;;;26.54
27986;BMP280;15453;53.692;10.168;2022-08-21T11:37:10;101185.09;;;26.62
27986;BMP280;15453;53.692;10.168;2022-08-21T11:41:57;101181.94;;;26.63
27986;BMP280;15453;53.692;10.168;2022-08-21T11:44:56;101187.22;;;26.65
27986;BMP280;15453;53.692;10.168;2022-08-21T11:50:31;101183.13;;;26.74
27986;BMP280;15453;53.692;10.168;2022-08-21T11:53:07;101185.63;;;26.88
27986;BMP280;15453;53.692;10.168;2022-08-21T11:55:41;101182.97;;;27.04
27986;BMP280;15453;53.692;10.168;2022-08-21T12:00:49;101179.97;;;27.33
27986;BMP280;15453;53.692;10.168;2022-08-21T12:03:22;101180.13;;;27.48
27986;BMP280;15453;53.692;10.168;2022-08-21T12:05:55;101181.97;;;27.68
27986;BMP280;15453;53.692;10.168;2022-08-21T12:08:42;101175.19;;;27.81
27986;BMP280;15453;53.692;10.168;2022-08-21T12:11:24;101176.09;;;27.97
27986;BMP280;15453;53.692;10.168;2022-08-21T12:16:43;101173.88;;;28.30
27986;BMP280;15453;53.692;10.168;2022-08-21T12:22:07;101165.09;;;28.59
27986;BMP280;15453;53.692;10.168;2022-08-21T12:24:48;101163.84;;;28.72
27986;BMP280;15453;53.692;10.168;2022-08-21T12:27:20;101169.63;;;28.91
27986;BMP280;15453;53.692;10.168;2022-08-21T12:30:05;101174.66;;;28.98
27986;BMP280;15453;53.692;10.168;2022-08-21T12:35:13;101175.03;;;29.12
27986;BMP280;15453;53.692;10.168;2022-08-21T12:37:43;101176.41;;;29.18
27986;BMP280;15453;53.692;10.168;2022-08-21T12:42:47;101169.03;;;29.29
27986;BMP280;15453;53.692;10.168;2022-08-21T12:45:19;101170.69;;;29.30
27986;BMP280;15453;53.692;10.168;2022-08-21T12:47:57;101169.03;;;29.29
27986;BMP280;15453;53.692;10.168;2022-08-21T12:50:36;101163.78;;;29.27
27986;BMP280;15453;53.692;10.168;2022-08-21T12:53:08;101170.34;;;29.31
27986;BMP280;15453;53.692;10.168;2022-08-21T12:55:34;101173.31;;;29.23
27986;BMP280;15453;53.692;10.168;2022-08-21T12:58:00;101173.22;;;29.35
27986;BMP280;15453;53.692;10.168;2022-08-21T13:00:28;101170.34;;;29.31
27986;BMP280;15453;53.692;10.168;2022-08-21T13:02:55;101165.41;;;29.28
27986;BMP280;15453;53.692;10.168;2022-08-21T13:05:32;101165.94;;;29.18
27986;BMP280;15453;53.692;10.168;2022-08-21T13:07:59;101177.34;;;29.06
27986;BMP280;15453;53.692;10.168;2022-08-21T13:10:30;101169.84;;;28.98
27986;BMP280;15453;53.692;10.168;2022-08-21T13:12:59;101166.81;;;28.91
27986;BMP280;15453;53.692;10.168;2022-08-21T13:15:28;101165.97;;;28.91
27986;BMP280;15453;53.692;10.168;2022-08-21T13:17:54;101165.91;;;28.87
27986;BMP280;15453;53.692;10.168;2022-08-21T13:20:29;101151.78;;;28.87
27986;BMP280;15453;53.692;10.168;2022-08-21T13:22:55;101164.91;;;28.95
27986;BMP280;15453;53.692;10.168;2022-08-21T13:25:25;101159.03;;;29.00
27986;BMP280;15453;53.692;10.168;2022-08-21T13:28:07;101149.56;;;29.08
27986;BMP280;15453;53.692;10.168;2022-08-21T13:30:34;101155.84;;;29.17
27986;BMP280;15453;53.692;10.168;2022-08-21T13:33:01;101149.19;;;29.25
27986;BMP280;15453;53.692;10.168;2022-08-21T13:35:57;101152.00;;;29.41
27986;BMP280;15453;53.692;10.168;2022-08-21T13:38:18;101152.00;;;29.41
27986;BMP280;15453;53.692;10.168;2022-08-21T13:41:07;101151.75;;;29.46
27986;BMP280;15453;53.692;10.168;2022-08-21T13:43:35;101153.38;;;29.47
27986;BMP280;15453;53.692;10.168;2022-08-21T13:46:07;101152.25;;;29.51
27986;BMP280;15453;53.692;10.168;2022-08-21T13:48:35;101152.53;;;29.46
27986;BMP280;15453;53.692;10.168;2022-08-21T13:51:02;101146.81;;;29.43
27986;BMP280;15453;53.692;10.168;2022-08-21T13:53:31;101151.94;;;29.37
27986;BMP280;15453;53.692;10.168;2022-08-21T13:55:58;101151.38;;;29.32
27986;BMP280;15453;53.692;10.168;2022-08-21T13:58:45;101149.19;;;29.25
27986;BMP280;15453;53.692;10.168;2022-08-21T14:01:51;101157.03;;;29.16
27986;BMP280;15453;53.692;10.168;2022-08-21T14:04:26;101152.81;;;29.10
27986;BMP280;15453;53.692;10.168;2022-08-21T14:06:52;101153.94;;;29.06
27986;BMP280;15453;53.692;10.168;2022-08-21T14:09:30;101153.09;;;29.05
27986;BMP280;15453;53.692;10.168;2022-08-21T14:11:56;101158.75;;;29.05
27986;BMP280;15453;53.692;10.168;2022-08-21T14:14:25;101152.38;;;29.08
27986;BMP280;15453;53.692;10.168;2022-08-21T14:16:58;101152.59;;;29.15
27986;BMP280;15453;53.692;10.168;2022-08-21T14:19:27;101157.22;;;29.23
27986;BMP280;15453;53.692;10.168;2022-08-21T14:21:52;101158.22;;;29.31
27986;BMP280;15453;53.692;10.168;2022-08-21T14:29:21;101163.56;;;29.51
27986;BMP280;15453;53.692;10.168;2022-08-21T14:31:53;101150.72;;;29.54
27986;BMP280;15453;53.692;10.168;2022-08-21T14:34:19;101155.19;;;29.55
27986;BMP280;15453;53.692;10.168;2022-08-21T14:36:46;101152.91;;;29.60
27986;BMP280;15453;53.692;10.168;2022-08-21T14:39:11;101153.69;;;29.76
27986;BMP280;15453;53.692;10.168;2022-08-21T14:41:37;101153.69;;;29.76
27986;BMP280;15453;53.692;10.168;2022-08-21T14:44:02;101152.59;;;29.81
27986;BMP280;15453;53.692;10.168;2022-08-21T14:46:30;101160.44;;;29.87
27986;BMP280;15453;53.692;10.168;2022-08-21T14:48:56;101152.72;;;30.03
27986;BMP280;15453;53.692;10.168;2022-08-21T14:51:22;101152.72;;;30.03